Time;durP1;ratioP1;P1;durP2;ratioP2;P2;SDS_P1;SDS_P2;PMS_P1;PMS_P2;Temp;Humidity;BMP_temperature;BMP_pressure;BME280_temperature;BME280_humidity;BME280_pressure;Samples;Min_cycle;Max_cycle;Signal;HPM_P1;HPM_P2
2023/04/28 00:01:47;;;;;;;;;;;;;;;9.72;nan;102064.84;5043888;28;19964;-83
2023/04/28 00:04:13;;;;;;;;;;;;;;;9.67;nan;102054.75;5049845;28;19924;-83
2023/04/28 00:06:38;;;;;;;;;;;;;;;9.65;nan;102056.81;5050338;28;19918;-83
2023/04/28 00:09:04;;;;;;;;;;;;;;;9.62;nan;102054.56;5050666;28;19923;-85
2023/04/28 00:11:29;;;;;;;;;;;;;;;9.58;nan;102054.16;5041866;28;20263;-84
2023/04/28 00:13:55;;;;;;;;;;;;;;;9.58;nan;102053.34;5048114;28;20322;-83
2023/04/28 00:16:20;;;;;;;;;;;;;;;9.57;nan;102049.84;5052220;28;19916;-83
2023/04/28 00:18:46;;;;;;;;;;;;;;;9.56;nan;102050.88;5050033;28;19982;-83
2023/04/28 00:21:11;;;;;;;;;;;;;;;9.53;nan;102048.63;5044953;28;19939;-84
2023/04/28 00:23:36;;;;;;;;;;;;;;;9.52;nan;102048.84;5051209;28;19917;-83
2023/04/28 00:26:02;;;;;;;;;;;;;;;9.49;nan;102043.88;5049838;28;19964;-83
2023/04/28 00:28:27;;;;;;;;;;;;;;;9.47;nan;102036.06;5047126;28;20058;-83
2023/04/28 00:30:52;;;;;;;;;;;;;;;9.45;nan;102039.97;5050448;28;19943;-83
2023/04/28 00:33:18;;;;;;;;;;;;;;;9.44;nan;102036.47;5043071;28;19917;-83
2023/04/28 00:35:43;;;;;;;;;;;;;;;9.44;nan;102044.50;5044167;28;19917;-83
2023/04/28 00:38:09;;;;;;;;;;;;;;;9.45;nan;102038.13;5046083;28;19917;-83
2023/04/28 00:40:35;;;;;;;;;;;;;;;9.42;nan;102033.19;5045321;28;19921;-83
2023/04/28 00:43:01;;;;;;;;;;;;;;;9.36;nan;102028.69;5041192;28;19917;-83
2023/04/28 00:45:27;;;;;;;;;;;;;;;9.33;nan;102031.75;5049879;28;19948;-83
2023/04/28 00:47:53;;;;;;;;;;;;;;;9.29;nan;102025.19;5045824;28;20177;-83
2023/04/28 00:50:18;;;;;;;;;;;;;;;9.24;nan;102027.66;5047625;28;20287;-83
2023/04/28 00:52:44;;;;;;;;;;;;;;;9.19;nan;102025.63;5043108;28;19924;-83
2023/04/28 00:55:09;;;;;;;;;;;;;;;9.14;nan;102025.41;5047762;28;19939;-83
2023/04/28 00:57:35;;;;;;;;;;;;;;;9.11;nan;102025.81;5050454;28;19927;-83
2023/04/28 01:00:01;;;;;;;;;;;;;;;9.05;nan;102032.00;5045730;28;20267;-82
2023/04/28 01:02:28;;;;;;;;;;;;;;;8.98;nan;102031.19;5046162;28;19942;-83
2023/04/28 01:04:54;;;;;;;;;;;;;;;8.93;nan;102028.31;5049762;28;19947;-83
2023/04/28 01:07:20;;;;;;;;;;;;;;;8.88;nan;102030.78;5048871;28;19917;-83
2023/04/28 01:09:46;;;;;;;;;;;;;;;8.88;nan;102028.94;5045502;28;19917;-82
2023/04/28 01:12:12;;;;;;;;;;;;;;;8.87;nan;102024.59;5045207;28;20371;-83
2023/04/28 01:14:37;;;;;;;;;;;;;;;8.84;nan;102024.22;5042115;28;20011;-83
2023/04/28 01:17:02;;;;;;;;;;;;;;;8.84;nan;102021.53;5048620;28;19917;-82
2023/04/28 01:19:28;;;;;;;;;;;;;;;8.82;nan;102020.91;5044207;28;19932;-83
2023/04/28 01:21:54;;;;;;;;;;;;;;;8.76;nan;102025.22;5048438;28;20383;-83
2023/04/28 01:24:19;;;;;;;;;;;;;;;8.73;nan;102025.63;5050865;28;19920;-82
2023/04/28 01:26:45;;;;;;;;;;;;;;;8.70;nan;102023.38;5046685;28;19920;-82
2023/04/28 01:29:10;;;;;;;;;;;;;;;8.62;nan;102016.38;5039902;28;19940;-83
2023/04/28 01:31:36;;;;;;;;;;;;;;;8.57;nan;102026.84;5041376;28;19917;-83
2023/04/28 01:34:01;;;;;;;;;;;;;;;8.53;nan;102024.78;5039483;28;20437;-82
2023/04/28 01:36:27;;;;;;;;;;;;;;;8.53;nan;102027.47;5047173;28;19920;-83
2023/04/28 01:38:53;;;;;;;;;;;;;;;8.50;nan;102028.69;5058018;28;19920;-83
2023/04/28 01:41:18;;;;;;;;;;;;;;;8.50;nan;102028.69;5041017;28;19975;-82
2023/04/28 01:43:43;;;;;;;;;;;;;;;8.51;nan;102025.00;5041211;28;19931;-83
2023/04/28 01:46:09;;;;;;;;;;;;;;;8.48;nan;102015.53;5047614;28;19916;-83
2023/04/28 01:48:35;;;;;;;;;;;;;;;8.45;nan;102020.47;5049325;28;20164;-83
2023/04/28 01:51:00;;;;;;;;;;;;;;;8.44;nan;102018.81;5042043;28;20016;-82
2023/04/28 01:53:25;;;;;;;;;;;;;;;8.40;nan;102020.22;5043731;28;19920;-82
2023/04/28 01:55:51;;;;;;;;;;;;;;;8.38;nan;102011.59;5045845;28;20279;-82
2023/04/28 01:58:16;;;;;;;;;;;;;;;8.32;nan;102015.88;5045167;28;19935;-82
2023/04/28 02:00:42;;;;;;;;;;;;;;;8.31;nan;102010.75;5041840;28;20294;-82
2023/04/28 02:03:07;;;;;;;;;;;;;;;8.27;nan;102015.69;5040711;28;20007;-82
2023/04/28 02:05:32;;;;;;;;;;;;;;;8.24;nan;102017.91;5057559;28;20192;-82
2023/04/28 02:07:58;;;;;;;;;;;;;;;8.23;nan;102021.59;5048362;28;19925;-82
2023/04/28 02:10:23;;;;;;;;;;;;;;;8.22;nan;102017.28;5044973;28;20047;-83
2023/04/28 02:12:49;;;;;;;;;;;;;;;8.21;nan;102013.78;5041529;28;19921;-82
2023/04/28 02:15:14;;;;;;;;;;;;;;;8.19;nan;102011.31;5045418;28;20407;-82
2023/04/28 02:17:40;;;;;;;;;;;;;;;8.19;nan;102005.97;5045265;28;19923;-82
2023/04/28 02:20:05;;;;;;;;;;;;;;;8.19;nan;102011.31;5041195;28;19917;-83
2023/04/28 02:22:31;;;;;;;;;;;;;;;8.18;nan;102008.84;5045913;28;19921;-83
2023/04/28 02:24:56;;;;;;;;;;;;;;;8.11;nan;102008.84;5044627;28;20023;-83
2023/04/28 02:27:22;;;;;;;;;;;;;;;8.07;nan;102009.44;5047296;28;19967;-83
2023/04/28 02:29:47;;;;;;;;;;;;;;;8.03;nan;102002.84;5043465;28;20720;-82
2023/04/28 02:32:12;;;;;;;;;;;;;;;8.00;nan;101998.75;5048031;28;19917;-82
2023/04/28 02:34:38;;;;;;;;;;;;;;;8.01;nan;102010.25;5045852;28;20514;-82
2023/04/28 02:37:03;;;;;;;;;;;;;;;7.98;nan;102008.78;5046490;28;19917;-82
2023/04/28 02:39:29;;;;;;;;;;;;;;;7.96;nan;102007.34;5045591;28;19959;-82
2023/04/28 02:41:56;;;;;;;;;;;;;;;7.94;nan;102001.41;5040193;28;19921;-83
2023/04/28 02:44:22;;;;;;;;;;;;;;;7.92;nan;102003.44;5044903;28;19931;-81
2023/04/28 02:46:47;;;;;;;;;;;;;;;7.89;nan;102008.13;5044601;28;20063;-82
2023/04/28 02:49:12;;;;;;;;;;;;;;;7.86;nan;102002.38;5040627;28;19923;-82
2023/04/28 02:51:38;;;;;;;;;;;;;;;7.87;nan;102004.84;5047129;28;19924;-82
2023/04/28 02:54:03;;;;;;;;;;;;;;;7.88;nan;102008.34;5044341;28;19970;-82
2023/04/28 02:56:29;;;;;;;;;;;;;;;7.87;nan;102004.03;5042332;28;19913;-82
2023/04/28 02:58:55;;;;;;;;;;;;;;;7.86;nan;102005.88;5044095;28;19920;-82
2023/04/28 03:01:21;;;;;;;;;;;;;;;7.86;nan;102003.19;5042477;28;20547;-82
2023/04/28 03:03:46;;;;;;;;;;;;;;;7.87;nan;102002.19;5043216;28;19960;-81
2023/04/28 03:06:11;;;;;;;;;;;;;;;7.85;nan;101998.06;5041917;28;19964;-82
2023/04/28 03:08:37;;;;;;;;;;;;;;;7.83;nan;102000.13;5041281;28;19963;-81
2023/04/28 03:11:02;;;;;;;;;;;;;;;7.82;nan;101998.47;5044898;28;19927;-82
2023/04/28 03:13:28;;;;;;;;;;;;;;;7.78;nan;101991.91;5049233;28;19974;-82
2023/04/28 03:15:54;;;;;;;;;;;;;;;7.74;nan;101991.47;5051996;28;20036;-81
2023/04/28 03:18:21;;;;;;;;;;;;;;;7.74;nan;101987.97;5049801;28;19948;-82
2023/04/28 03:20:46;;;;;;;;;;;;;;;7.73;nan;101991.69;5047702;28;19917;-81
2023/04/28 03:23:12;;;;;;;;;;;;;;;7.72;nan;101984.66;5051658;28;19924;-82
2023/04/28 03:25:37;;;;;;;;;;;;;;;7.67;nan;101989.78;5053674;28;20332;-82
2023/04/28 03:28:02;;;;;;;;;;;;;;;7.62;nan;101985.03;5050643;28;20406;-82
2023/04/28 03:30:28;;;;;;;;;;;;;;;7.58;nan;101991.81;5049991;28;19949;-82
2023/04/28 03:32:53;;;;;;;;;;;;;;;7.55;nan;101993.03;5045401;28;20846;-81
2023/04/28 03:35:18;;;;;;;;;;;;;;;7.55;nan;101987.69;5044171;28;20298;-81
2023/04/28 03:37:44;;;;;;;;;;;;;;;7.54;nan;101980.72;5050029;28;19917;-81
2023/04/28 03:40:10;;;;;;;;;;;;;;;7.53;nan;101980.88;5046137;28;19973;-82
2023/04/28 03:42:35;;;;;;;;;;;;;;;7.52;nan;101992.56;5052804;28;19917;-82
2023/04/28 03:45:01;;;;;;;;;;;;;;;7.52;nan;101984.56;5047682;28;20508;-81
2023/04/28 03:47:27;;;;;;;;;;;;;;;7.50;nan;101987.44;5048485;28;19921;-81
2023/04/28 03:49:52;;;;;;;;;;;;;;;7.49;nan;101983.13;5048702;28;21267;-81
2023/04/28 03:52:18;;;;;;;;;;;;;;;7.49;nan;101984.97;5051910;28;19921;-81
2023/04/28 03:54:43;;;;;;;;;;;;;;;7.47;nan;101977.19;5052059;28;19917;-82
2023/04/28 03:57:08;;;;;;;;;;;;;;;7.45;nan;101984.56;5050334;28;19923;-81
2023/04/28 03:59:34;;;;;;;;;;;;;;;7.42;nan;101981.47;5046762;28;19924;-81
2023/04/28 04:01:59;;;;;;;;;;;;;;;7.42;nan;101984.13;5052597;28;20016;-81
2023/04/28 04:04:25;;;;;;;;;;;;;;;7.44;nan;101979.41;5046244;28;19975;-81
2023/04/28 04:06:50;;;;;;;;;;;;;;;7.47;nan;101985.16;5046504;28;19932;-81
2023/04/28 04:09:16;;;;;;;;;;;;;;;7.49;nan;101993.78;5046558;28;19970;-81
2023/04/28 04:11:41;;;;;;;;;;;;;;;7.50;nan;101986.63;5051264;28;19970;-81
2023/04/28 04:14:06;;;;;;;;;;;;;;;7.52;nan;101982.72;5043965;28;19923;-82
2023/04/28 04:16:32;;;;;;;;;;;;;;;7.54;nan;101980.72;5052045;28;19939;-82
2023/04/28 04:18:57;;;;;;;;;;;;;;;7.57;nan;101982.16;5048657;28;19932;-81
2023/04/28 04:21:22;;;;;;;;;;;;;;;7.63;nan;101983.19;5050978;28;20386;-81
2023/04/28 04:23:48;;;;;;;;;;;;;;;7.67;nan;101981.78;5050388;28;20332;-81
2023/04/28 04:26:13;;;;;;;;;;;;;;;7.72;nan;101985.50;5051944;28;19932;-81
2023/04/28 04:28:39;;;;;;;;;;;;;;;7.77;nan;101988.41;5047605;28;20015;-81
2023/04/28 04:31:04;;;;;;;;;;;;;;;7.86;nan;101983.69;5052037;28;19920;-81
2023/04/28 04:33:29;;;;;;;;;;;;;;;7.98;nan;101981.28;5049459;28;19948;-81
2023/04/28 04:35:55;;;;;;;;;;;;;;;8.11;nan;101989.34;5048093;28;20440;-81
2023/04/28 04:38:20;;;;;;;;;;;;;;;8.22;nan;101982.56;5051930;28;20297;-81
2023/04/28 04:40:46;;;;;;;;;;;;;;;8.31;nan;101979.53;5049060;28;19924;-81
2023/04/28 04:43:11;;;;;;;;;;;;;;;8.42;nan;101981.59;5052130;28;20492;-81
2023/04/28 04:45:37;;;;;;;;;;;;;;;8.54;nan;101981.84;5049965;28;20024;-81
2023/04/28 04:48:02;;;;;;;;;;;;;;;8.62;nan;101981.66;5049884;28;19966;-82
2023/04/28 04:50:27;;;;;;;;;;;;;;;8.71;nan;101976.91;5046588;28;19925;-83
2023/04/28 04:52:55;;;;;;;;;;;;;;;8.78;nan;101972.38;5051707;28;20162;-82
2023/04/28 04:55:20;;;;;;;;;;;;;;;8.88;nan;101982.66;5045401;28;19929;-82
2023/04/28 04:57:46;;;;;;;;;;;;;;;8.98;nan;101975.88;5049736;28;19970;-82
2023/04/28 05:00:12;;;;;;;;;;;;;;;9.09;nan;101963.72;5048313;28;19971;-82
2023/04/28 05:02:37;;;;;;;;;;;;;;;9.20;nan;101965.78;5049619;28;20417;-82
2023/04/28 05:05:03;;;;;;;;;;;;;;;9.29;nan;101969.84;5048644;28;19920;-82
2023/04/28 05:07:28;;;;;;;;;;;;;;;9.41;nan;101963.84;5053598;28;19924;-83
2023/04/28 05:09:54;;;;;;;;;;;;;;;9.54;nan;101966.50;5050195;28;19967;-83
2023/04/28 05:12:19;;;;;;;;;;;;;;;9.64;nan;101966.84;5046895;28;19921;-83
2023/04/28 05:14:45;;;;;;;;;;;;;;;9.76;nan;101962.50;5048684;28;19917;-83
2023/04/28 05:17:11;;;;;;;;;;;;;;;9.86;nan;101962.84;5047691;28;19917;-83
2023/04/28 05:19:36;;;;;;;;;;;;;;;9.97;nan;101956.81;5047788;28;20501;-83
2023/04/28 05:22:01;;;;;;;;;;;;;;;10.06;nan;101953.91;5049168;28;19948;-83
2023/04/28 05:24:27;;;;;;;;;;;;;;;10.15;nan;101952.59;5052757;28;19920;-83
2023/04/28 05:26:53;;;;;;;;;;;;;;;10.27;nan;101953.59;5049176;28;19924;-84
2023/04/28 05:29:18;;;;;;;;;;;;;;;10.40;nan;101956.16;5047086;28;19947;-82
2023/04/28 05:31:44;;;;;;;;;;;;;;;10.54;nan;101946.16;5050522;28;19921;-83
2023/04/28 05:34:09;;;;;;;;;;;;;;;10.67;nan;101954.09;5045613;28;19916;-84
2023/04/28 05:36:35;;;;;;;;;;;;;;;10.81;nan;101949.44;5046269;28;19917;-83
2023/04/28 05:39:00;;;;;;;;;;;;;;;10.94;nan;101945.81;5046989;28;20286;-84
2023/04/28 05:41:26;;;;;;;;;;;;;;;11.05;nan;101951.28;5045180;28;20233;-84
2023/04/28 05:43:51;;;;;;;;;;;;;;;11.20;nan;101949.06;5046838;28;19927;-85
2023/04/28 05:46:17;;;;;;;;;;;;;;;11.35;nan;101940.66;5046357;28;20135;-85
2023/04/28 05:48:42;;;;;;;;;;;;;;;11.50;nan;101942.97;5048148;28;19917;-86
2023/04/28 05:51:07;;;;;;;;;;;;;;;11.68;nan;101948.31;5048549;28;19920;-84
2023/04/28 05:53:33;;;;;;;;;;;;;;;11.77;nan;101938.06;5047995;28;19916;-85
2023/04/28 05:55:58;;;;;;;;;;;;;;;11.94;nan;101935.59;5046266;28;20412;-84
2023/04/28 06:04:29;;;;;;;;;;;;;;;12.49;nan;101927.31;5040470;28;19932;-84
2023/04/28 06:07:03;;;;;;;;;;;;;;;12.67;nan;101929.91;5038370;28;19925;-85
2023/04/28 06:09:28;;;;;;;;;;;;;;;12.85;nan;101931.66;5042059;28;19920;-84
2023/04/28 06:11:54;;;;;;;;;;;;;;;13.04;nan;101926.97;5038919;28;20362;-86
2023/04/28 06:14:19;;;;;;;;;;;;;;;13.19;nan;101920.09;5045574;28;20290;-85
2023/04/28 06:16:47;;;;;;;;;;;;;;;13.39;nan;101925.06;5045349;28;19970;-86
2023/04/28 06:19:14;;;;;;;;;;;;;;;13.54;nan;101925.38;5040811;28;19917;-85
2023/04/28 06:21:40;;;;;;;;;;;;;;;13.70;nan;101925.69;5043831;28;19921;-85
2023/04/28 06:24:05;;;;;;;;;;;;;;;13.84;nan;101913.56;5041205;28;20049;-85
2023/04/28 06:26:30;;;;;;;;;;;;;;;14.02;nan;101915.25;5042090;28;19924;-88
2023/04/28 06:28:56;;;;;;;;;;;;;;;14.14;nan;101919.50;5046166;28;19924;-85
2023/04/28 06:31:21;;;;;;;;;;;;;;;14.31;nan;101918.69;5043521;28;19924;-86
2023/04/28 06:33:47;;;;;;;;;;;;;;;14.43;nan;101917.59;5044374;28;20109;-85
2023/04/28 06:36:12;;;;;;;;;;;;;;;14.58;nan;101908.94;5038422;28;19948;-86
2023/04/28 06:38:39;;;;;;;;;;;;;;;14.63;nan;101909.00;5043653;28;19979;-85
2023/04/28 06:41:04;;;;;;;;;;;;;;;14.64;nan;101913.31;5042552;28;19962;-85
2023/04/28 06:43:31;;;;;;;;;;;;;;;14.71;nan;101911.25;5043534;28;19999;-86
2023/04/28 06:45:56;;;;;;;;;;;;;;;14.78;nan;101911.94;5037082;28;19925;-85
2023/04/28 06:48:29;;;;;;;;;;;;;;;14.91;nan;101910.78;5042542;28;19921;-86
2023/04/28 06:50:57;;;;;;;;;;;;;;;15.04;nan;101899.59;5037898;28;19927;-85
2023/04/28 06:53:22;;;;;;;;;;;;;;;15.10;nan;101900.50;5039405;28;20074;-86
2023/04/28 06:55:47;;;;;;;;;;;;;;;15.18;nan;101902.75;5044245;28;20008;-84
2023/04/28 06:58:13;;;;;;;;;;;;;;;15.29;nan;101899.13;5045000;28;19916;-85
2023/04/28 07:00:38;;;;;;;;;;;;;;;15.43;nan;101896.84;5042413;28;20374;-86
2023/04/28 07:03:04;;;;;;;;;;;;;;;15.60;nan;101899.47;5038466;28;19921;-86
2023/04/28 07:05:38;;;;;;;;;;;;;;;15.72;nan;101897.47;5043815;28;19928;-86
2023/04/28 07:08:04;;;;;;;;;;;;;;;15.87;nan;101894.94;5039624;28;20020;-86
2023/04/28 07:10:29;;;;;;;;;;;;;;;15.98;nan;101895.84;5041195;28;20279;-86
2023/04/28 07:12:55;;;;;;;;;;;;;;;16.08;nan;101887.81;5041653;28;19960;-86
2023/04/28 07:15:23;;;;;;;;;;;;;;;16.22;nan;101889.03;5042249;28;19917;-86
2023/04/28 07:17:49;;;;;;;;;;;;;;;16.42;nan;101879.44;5041903;28;20074;-86
2023/04/28 07:20:14;;;;;;;;;;;;;;;16.62;nan;101879.56;5042594;28;19972;-87
2023/04/28 07:22:40;;;;;;;;;;;;;;;16.75;nan;101870.22;5040616;28;20352;-84
2023/04/28 07:25:09;;;;;;;;;;;;;;;16.90;nan;101864.91;5040885;28;20089;-87
2023/04/28 07:27:34;;;;;;;;;;;;;;;17.12;nan;101862.00;5041196;28;19960;-87
2023/04/28 07:30:00;;;;;;;;;;;;;;;17.36;nan;101856.94;5044002;28;19970;-86
2023/04/28 07:32:25;;;;;;;;;;;;;;;17.57;nan;101857.81;5042658;28;20414;-86
2023/04/28 07:34:53;;;;;;;;;;;;;;;17.71;nan;101854.34;5043420;28;20315;-87
2023/04/28 07:37:18;;;;;;;;;;;;;;;17.84;nan;101857.63;5041990;28;19924;-86
2023/04/28 07:39:44;;;;;;;;;;;;;;;17.91;nan;101852.72;5043073;28;19928;-85
2023/04/28 07:42:12;;;;;;;;;;;;;;;18.04;nan;101850.31;5044227;28;19945;-84
2023/04/28 07:44:40;;;;;;;;;;;;;;;18.19;nan;101835.94;5044969;28;20477;-86
2023/04/28 07:47:06;;;;;;;;;;;;;;;18.34;nan;101838.63;5038873;28;20413;-85
2023/04/28 07:49:32;;;;;;;;;;;;;;;18.53;nan;101838.88;5039436;28;19917;-86
2023/04/28 07:51:57;;;;;;;;;;;;;;;18.69;nan;101847.81;5040590;28;19921;-88
2023/04/28 07:54:25;;;;;;;;;;;;;;;18.78;nan;101838.00;5039932;28;20078;-86
2023/04/28 07:56:51;;;;;;;;;;;;;;;18.79;nan;101839.63;5045637;28;20035;-85
2023/04/28 07:59:16;;;;;;;;;;;;;;;18.79;nan;101836.09;5039019;28;20019;-84
2023/04/28 08:01:45;;;;;;;;;;;;;;;18.86;nan;101842.06;5052661;28;19917;-88
2023/04/28 08:04:10;;;;;;;;;;;;;;;19.00;nan;101838.47;5046162;28;19918;-85
2023/04/28 08:06:38;;;;;;;;;;;;;;;19.12;nan;101832.72;5042826;28;19931;-87
2023/04/28 08:09:05;;;;;;;;;;;;;;;19.17;nan;101827.25;5042567;28;20527;-88
2023/04/28 08:11:30;;;;;;;;;;;;;;;19.29;nan;101832.38;5047973;28;19959;-86
2023/04/28 08:14:01;;;;;;;;;;;;;;;19.45;nan;101814.88;5046509;28;19921;-88
2023/04/28 08:16:29;;;;;;;;;;;;;;;19.60;nan;101820.25;5042621;28;19952;-87
2023/04/28 08:19:08;;;;;;;;;;;;;;;;;;;;;
2023/04/28 08:21:34;;;;;;;;;;;;;;;19.77;nan;101824.50;5043688;28;19917;-86
2023/04/28 08:24:00;;;;;;;;;;;;;;;19.77;nan;101821.78;5046118;28;20012;-85
2023/04/28 08:26:35;;;;;;;;;;;;;;;19.90;nan;101823.81;5045746;28;19971;-86
2023/04/28 08:29:16;;;;;;;;;;;;;;;20.05;nan;101829.13;5048972;28;19967;-86
2023/04/28 08:31:44;;;;;;;;;;;;;;;20.18;nan;101824.94;5047214;28;20417;-88
2023/04/28 08:34:14;;;;;;;;;;;;;;;20.26;nan;101818.88;5044723;28;19928;-87
2023/04/28 08:36:40;;;;;;;;;;;;;;;20.37;nan;101806.78;5049526;28;19921;-85
2023/04/28 08:39:07;;;;;;;;;;;;;;;20.53;nan;101821.09;5047487;28;19936;-87
2023/04/28 08:41:36;;;;;;;;;;;;;;;20.66;nan;101812.25;5050727;28;19924;-86
2023/04/28 08:44:05;;;;;;;;;;;;;;;20.66;nan;101811.44;5045268;28;19952;-86
2023/04/28 08:46:34;;;;;;;;;;;;;;;20.65;nan;101807.09;5046035;28;19917;-89
2023/04/28 08:49:01;;;;;;;;;;;;;;;20.70;nan;101791.50;5049292;28;19921;-87
2023/04/28 08:51:33;;;;;;;;;;;;;;;20.84;nan;101801.69;5047827;28;19921;-86
2023/04/28 08:54:03;;;;;;;;;;;;;;;20.80;nan;101802.25;5048922;28;19920;-87
2023/04/28 08:56:30;;;;;;;;;;;;;;;20.70;nan;101790.69;5044466;28;19932;-86
2023/04/28 08:58:57;;;;;;;;;;;;;;;20.67;nan;101792.06;5046783;28;19946;-86
2023/04/28 09:01:24;;;;;;;;;;;;;;;20.76;nan;101784.88;5043972;28;19925;-88
2023/04/28 09:03:50;;;;;;;;;;;;;;;20.87;nan;101780.13;5044434;28;19952;-86
2023/04/28 09:06:15;;;;;;;;;;;;;;;20.92;nan;101779.22;5042842;28;20351;-87
2023/04/28 09:08:41;;;;;;;;;;;;;;;20.95;nan;101781.38;5047279;28;19921;-87
2023/04/28 09:11:07;;;;;;;;;;;;;;;21.12;nan;101776.22;5045701;28;19920;-87
2023/04/28 09:13:33;;;;;;;;;;;;;;;21.24;nan;101776.63;5047932;28;19925;-89
2023/04/28 09:15:59;;;;;;;;;;;;;;;21.37;nan;101773.19;5049427;28;19935;-86
2023/04/28 09:18:25;;;;;;;;;;;;;;;21.48;nan;101776.53;5047872;28;20428;-87
2023/04/28 09:20:51;;;;;;;;;;;;;;;21.32;nan;101765.06;5043194;28;19920;-87
2023/04/28 09:23:17;;;;;;;;;;;;;;;21.36;nan;101768.00;5046356;28;20226;-88
2023/04/28 09:25:58;;;;;;;;;;;;;;;21.58;nan;101770.13;5048671;28;20344;-91
2023/04/28 09:28:38;;;;;;;;;;;;;;;21.76;nan;101760.28;5049349;28;19980;-87
2023/04/28 09:31:06;;;;;;;;;;;;;;;21.71;nan;101758.44;5036671;28;19924;-91
2023/04/28 09:33:34;;;;;;;;;;;;;;;21.75;nan;101751.31;5044824;28;19916;-88
2023/04/28 09:35:59;;;;;;;;;;;;;;;21.83;nan;101750.59;5044472;28;19952;-87
2023/04/28 09:38:25;;;;;;;;;;;;;;;21.90;nan;101755.66;5046967;28;20296;-88
2023/04/28 09:40:54;;;;;;;;;;;;;;;22.05;nan;101751.88;5045064;28;20283;-88
2023/04/28 09:43:28;;;;;;;;;;;;;;;22.12;nan;101744.94;5045504;28;20106;-87
2023/04/28 09:46:04;;;;;;;;;;;;;;;22.16;nan;101743.22;5045365;28;19924;-88
2023/04/28 09:48:35;;;;;;;;;;;;;;;22.23;nan;101749.09;5042575;28;19921;-87
2023/04/28 09:51:02;;;;;;;;;;;;;;;22.32;nan;101735.56;5045452;28;19920;-91
2023/04/28 09:53:28;;;;;;;;;;;;;;;22.49;nan;101732.22;5046688;28;19979;-89
2023/04/28 09:55:57;;;;;;;;;;;;;;;22.69;nan;101734.50;5045658;28;20056;-88
2023/04/28 09:58:23;;;;;;;;;;;;;;;22.89;nan;101722.38;5047895;28;19921;-86
2023/04/28 10:00:51;;;;;;;;;;;;;;;23.02;nan;101729.72;5049022;28;19925;-87
2023/04/28 10:03:17;;;;;;;;;;;;;;;23.13;nan;101728.34;5047520;28;19921;-86
2023/04/28 10:05:44;;;;;;;;;;;;;;;23.19;nan;101718.13;5042714;28;19921;-87
2023/04/28 10:08:09;;;;;;;;;;;;;;;23.19;nan;101720.88;5048740;28;19921;-87
2023/04/28 10:10:38;;;;;;;;;;;;;;;23.14;nan;101719.03;5048519;28;20341;-90
2023/04/28 10:13:04;;;;;;;;;;;;;;;23.24;nan;101711.72;5052407;28;20080;-88
2023/04/28 10:15:31;;;;;;;;;;;;;;;23.42;nan;101710.72;5051056;28;19917;-87
2023/04/28 10:17:58;;;;;;;;;;;;;;;23.59;nan;101694.47;5052808;28;19924;-90
2023/04/28 10:20:25;;;;;;;;;;;;;;;23.79;nan;101693.94;5048001;28;19944;-88
2023/04/28 10:23:09;;;;;;;;;;;;;;;23.90;nan;101691.75;5046469;28;19964;-90
2023/04/28 10:25:35;;;;;;;;;;;;;;;23.93;nan;101685.63;5047023;28;19924;-88
2023/04/28 10:28:04;;;;;;;;;;;;;;;24.01;nan;101682.09;5041186;28;20164;-88
2023/04/28 10:30:30;;;;;;;;;;;;;;;24.09;nan;101680.53;5041058;28;20501;-88
2023/04/28 10:33:10;;;;;;;;;;;;;;;24.14;nan;101677.66;5041840;28;19924;-88
2023/04/28 10:35:41;;;;;;;;;;;;;;;24.26;nan;101674.31;5048325;28;19917;-91
2023/04/28 10:38:09;;;;;;;;;;;;;;;24.33;nan;101667.28;5045896;28;20059;-88
2023/04/28 10:41:09;;;;;;;;;;;;;;;24.48;nan;101665.22;5043726;28;19917;-87
2023/04/28 10:43:40;;;;;;;;;;;;;;;24.59;nan;101661.03;5040860;28;19921;-90
2023/04/28 10:46:06;;;;;;;;;;;;;;;24.58;nan;101662.94;5043907;28;19924;-86
2023/04/28 10:48:31;;;;;;;;;;;;;;;24.41;nan;101657.44;5043394;28;19917;-87
2023/04/28 10:51:03;;;;;;;;;;;;;;;24.49;nan;101658.59;5048239;28;19966;-86
2023/04/28 10:53:51;;;;;;;;;;;;;;;24.57;nan;101649.56;5047551;28;20366;-87
2023/04/28 10:56:18;;;;;;;;;;;;;;;24.70;nan;101638.47;5034656;28;20275;-87
2023/04/28 10:58:50;;;;;;;;;;;;;;;24.81;nan;101640.91;5051157;28;20366;-88
2023/04/28 11:01:23;;;;;;;;;;;;;;;24.85;nan;101630.91;5042022;28;19923;-87
2023/04/28 11:04:02;;;;;;;;;;;;;;;24.91;nan;101638.63;5046063;28;19952;-87
2023/04/28 11:06:33;;;;;;;;;;;;;;;25.02;nan;101627.38;5047366;28;19925;-89
2023/04/28 11:09:00;;;;;;;;;;;;;;;25.10;nan;101623.81;5051295;28;19925;-88
2023/04/28 11:11:26;;;;;;;;;;;;;;;25.16;nan;101630.75;5063684;28;19905;-90
2023/04/28 11:13:53;;;;;;;;;;;;;;;25.29;nan;101632.47;5064860;28;19988;-89
2023/04/28 11:16:25;;;;;;;;;;;;;;;25.44;nan;101626.47;5061034;28;19917;-88
2023/04/28 11:18:58;;;;;;;;;;;;;;;25.64;nan;101615.91;5061431;28;19917;-88
2023/04/28 11:21:24;;;;;;;;;;;;;;;25.77;nan;101618.47;5064842;28;19912;-89
2023/04/28 11:23:50;;;;;;;;;;;;;;;25.75;nan;101617.19;5062527;28;19921;-90
2023/04/28 11:26:18;;;;;;;;;;;;;;;25.67;nan;101618.00;5058147;28;19928;-88
2023/04/28 11:28:50;;;;;;;;;;;;;;;25.68;nan;101608.69;5059694;28;19920;-88
2023/04/28 11:31:19;;;;;;;;;;;;;;;25.87;nan;101609.09;5045864;28;19970;-87
2023/04/28 11:34:14;;;;;;;;;;;;;;;26.05;nan;101598.81;5048677;28;19982;-88
2023/04/28 11:36:42;;;;;;;;;;;;;;;26.19;nan;101602.91;5043439;28;19925;-87
2023/04/28 11:39:08;;;;;;;;;;;;;;;26.35;nan;101596.84;5043279;28;19936;-88
2023/04/28 11:41:35;;;;;;;;;;;;;;;26.44;nan;101595.66;5043906;28;19967;-89
2023/04/28 11:44:08;;;;;;;;;;;;;;;26.32;nan;101597.50;5042199;28;19929;-88
2023/04/28 11:46:33;;;;;;;;;;;;;;;26.24;nan;101592.88;5040468;28;20075;-88
2023/04/28 11:49:02;;;;;;;;;;;;;;;26.18;nan;101593.03;5038756;28;20437;-87
2023/04/28 11:51:28;;;;;;;;;;;;;;;26.13;nan;101585.00;5041218;28;19925;-89
2023/04/28 11:53:54;;;;;;;;;;;;;;;26.20;nan;101584.47;5049111;28;19921;-88
2023/04/28 11:56:20;;;;;;;;;;;;;;;26.37;nan;101591.81;5048099;28;19917;-88
2023/04/28 11:58:58;;;;;;;;;;;;;;;26.52;nan;101582.19;5051110;28;19932;-90
2023/04/28 12:01:23;;;;;;;;;;;;;;;26.61;nan;101586.47;5048580;28;19927;-87
2023/04/28 12:03:52;;;;;;;;;;;;;;;26.71;nan;101588.00;5049189;28;20014;-87
2023/04/28 12:06:23;;;;;;;;;;;;;;;26.74;nan;101582.63;5046733;28;19998;-88
2023/04/28 12:08:49;;;;;;;;;;;;;;;26.78;nan;101585.53;5048040;28;19929;-86
2023/04/28 12:11:14;;;;;;;;;;;;;;;26.80;nan;101583.22;5048279;28;19921;-85
2023/04/28 12:13:40;;;;;;;;;;;;;;;26.74;nan;101571.63;5051095;28;19920;-86
2023/04/28 12:16:06;;;;;;;;;;;;;;;26.65;nan;101572.84;5046424;28;19951;-89
2023/04/28 12:18:35;;;;;;;;;;;;;;;26.65;nan;101562.66;5056136;28;19924;-87
2023/04/28 12:21:01;;;;;;;;;;;;;;;26.71;nan;101572.31;5050574;28;19921;-90
2023/04/28 12:23:30;;;;;;;;;;;;;;;26.83;nan;101568.00;5049037;28;20266;-89
2023/04/28 12:25:56;;;;;;;;;;;;;;;26.88;nan;101565.03;5043966;28;19921;-88
2023/04/28 12:28:21;;;;;;;;;;;;;;;26.90;nan;101560.00;5043560;28;19936;-87
2023/04/28 12:30:46;;;;;;;;;;;;;;;26.88;nan;101554.84;5047113;28;19931;-88
2023/04/28 12:33:25;;;;;;;;;;;;;;;26.89;nan;101541.88;5050050;28;19928;-88
2023/04/28 12:35:51;;;;;;;;;;;;;;;27.02;nan;101554.56;5047266;28;20397;-88
2023/04/28 12:38:17;;;;;;;;;;;;;;;27.12;nan;101543.16;5047408;28;19952;-91
2023/04/28 12:40:43;;;;;;;;;;;;;;;27.23;nan;101549.78;5052372;28;20015;-89
2023/04/28 12:43:08;;;;;;;;;;;;;;;27.26;nan;101546.34;5049133;28;19955;-83
2023/04/28 12:45:34;;;;;;;;;;;;;;;27.08;nan;101539.44;5052167;28;20309;-86
2023/04/28 12:47:59;;;;;;;;;;;;;;;27.00;nan;101532.91;5049626;28;19928;-86
2023/04/28 12:50:26;;;;;;;;;;;;;;;26.88;nan;101532.84;5049555;28;19963;-86
2023/04/28 12:52:52;;;;;;;;;;;;;;;26.83;nan;101530.31;5050494;28;20087;-85
2023/04/28 12:55:17;;;;;;;;;;;;;;;26.83;nan;101526.75;5051089;28;19921;-86
2023/04/28 12:57:42;;;;;;;;;;;;;;;26.94;nan;101519.69;5049548;28;19945;-84
2023/04/28 13:00:20;;;;;;;;;;;;;;;26.85;nan;101518.97;5042951;28;19924;-86
2023/04/28 13:02:45;;;;;;;;;;;;;;;26.85;nan;101513.47;5044103;28;19924;-86
2023/04/28 13:05:11;;;;;;;;;;;;;;;26.84;nan;101506.38;5042472;28;19925;-86
2023/04/28 13:07:36;;;;;;;;;;;;;;;26.87;nan;101506.50;5046546;28;19952;-86